sensor_id;sensor_type;location;lat;lon;timestamp;pressure;altitude;pressure_sealevel;temperature
49154;BMP280;49455;52.252;9.124;2023-02-28T00:02:07;101089.50;;;-0.06
49154;BMP280;49455;52.252;9.124;2023-02-28T00:07:07;101084.22;;;0.01
49154;BMP280;49455;52.252;9.124;2023-02-28T00:12:08;101091.97;;;0.02
49154;BMP280;49455;52.252;9.124;2023-02-28T00:17:08;101087.53;;;0.00
49154;BMP280;49455;52.252;9.124;2023-02-28T00:22:08;101091.06;;;0.02
49154;BMP280;49455;52.252;9.124;2023-02-28T00:27:09;101083.59;;;0.03
49154;BMP280;49455;52.252;9.124;2023-02-28T00:32:10;101082.00;;;0.14
49154;BMP280;49455;52.252;9.124;2023-02-28T00:37:12;101077.19;;;0.17
49154;BMP280;49455;52.252;9.124;2023-02-28T00:42:12;101086.09;;;0.22
49154;BMP280;49455;52.252;9.124;2023-02-28T00:47:13;101088.59;;;0.12
49154;BMP280;49455;52.252;9.124;2023-02-28T00:52:13;101083.72;;;0.05
49154;BMP280;49455;52.252;9.124;2023-02-28T00:57:13;101089.03;;;-0.02
49154;BMP280;49455;52.252;9.124;2023-02-28T01:02:14;101089.44;;;-0.16
49154;BMP280;49455;52.252;9.124;2023-02-28T01:07:14;101088.34;;;-0.28
49154;BMP280;49455;52.252;9.124;2023-02-28T01:12:15;101082.31;;;-0.38
49154;BMP280;49455;52.252;9.124;2023-02-28T01:17:16;101088.19;;;-0.47
49154;BMP280;49455;52.252;9.124;2023-02-28T01:22:16;101092.00;;;-0.61
49154;BMP280;49455;52.252;9.124;2023-02-28T01:27:17;101093.84;;;-0.68
49154;BMP280;49455;52.252;9.124;2023-02-28T01:32:17;101094.06;;;-0.75
49154;BMP280;49455;52.252;9.124;2023-02-28T01:37:17;101093.06;;;-0.85
49154;BMP280;49455;52.252;9.124;2023-02-28T01:42:18;101090.56;;;-0.93
49154;BMP280;49455;52.252;9.124;2023-02-28T01:47:18;101073.41;;;-0.96
49154;BMP280;49455;52.252;9.124;2023-02-28T01:52:19;101081.63;;;-0.98
49154;BMP280;49455;52.252;9.124;2023-02-28T01:57:24;101088.53;;;-0.97
49154;BMP280;49455;52.252;9.124;2023-02-28T02:02:26;101083.13;;;-1.00
49154;BMP280;49455;52.252;9.124;2023-02-28T02:07:27;101083.78;;;-1.03
49154;BMP280;49455;52.252;9.124;2023-02-28T02:17:56;101083.16;;;-1.09
49154;BMP280;49455;52.252;9.124;2023-02-28T02:39:45;101077.13;;;-1.19
49154;BMP280;49455;52.252;9.124;2023-02-28T02:44:56;101073.72;;;-1.28
49154;BMP280;49455;52.252;9.124;2023-02-28T02:50:02;101078.22;;;-1.34
49154;BMP280;49455;52.252;9.124;2023-02-28T02:55:06;101083.28;;;-1.34
49154;BMP280;49455;52.252;9.124;2023-02-28T03:00:09;101089.00;;;-1.45
49154;BMP280;49455;52.252;9.124;2023-02-28T03:05:23;101089.78;;;-1.54
49154;BMP280;49455;52.252;9.124;2023-02-28T03:10:40;101089.81;;;-1.62
49154;BMP280;49455;52.252;9.124;2023-02-28T03:21:06;101084.72;;;-1.71
49154;BMP280;49455;52.252;9.124;2023-02-28T03:31:44;101086.13;;;-1.91
49154;BMP280;49455;52.252;9.124;2023-02-28T03:36:50;101080.63;;;-2.04
49154;BMP280;49455;52.252;9.124;2023-02-28T03:41:59;101077.50;;;-2.10
49154;BMP280;49455;52.252;9.124;2023-02-28T03:47:04;101076.44;;;-2.12
49154;BMP280;49455;52.252;9.124;2023-02-28T03:52:08;101069.75;;;-2.19
49154;BMP280;49455;52.252;9.124;2023-02-28T03:57:18;101068.56;;;-2.23
49154;BMP280;49455;52.252;9.124;2023-02-28T04:02:20;101073.94;;;-2.28
49154;BMP280;49455;52.252;9.124;2023-02-28T04:07:20;101074.81;;;-2.36
49154;BMP280;49455;52.252;9.124;2023-02-28T04:12:21;101080.47;;;-2.39
49154;BMP280;49455;52.252;9.124;2023-02-28T04:17:21;101085.81;;;-2.44
49154;BMP280;49455;52.252;9.124;2023-02-28T04:22:22;101078.69;;;-2.48
49154;BMP280;49455;52.252;9.124;2023-02-28T04:27:22;101078.81;;;-2.55
49154;BMP280;49455;52.252;9.124;2023-02-28T04:32:23;101080.03;;;-2.51
49154;BMP280;49455;52.252;9.124;2023-02-28T04:37:23;101078.09;;;-2.54
49154;BMP280;49455;52.252;9.124;2023-02-28T04:42:24;101067.38;;;-2.60
49154;BMP280;49455;52.252;9.124;2023-02-28T04:47:24;101078.38;;;-2.68
49154;BMP280;49455;52.252;9.124;2023-02-28T04:52:24;101078.09;;;-2.71
49154;BMP280;49455;52.252;9.124;2023-02-28T04:57:25;101080.44;;;-2.80
49154;BMP280;49455;52.252;9.124;2023-02-28T05:02:25;101079.53;;;-2.89
49154;BMP280;49455;52.252;9.124;2023-02-28T05:07:25;101085.81;;;-3.18
49154;BMP280;49455;52.252;9.124;2023-02-28T05:12:26;101096.72;;;-3.10
49154;BMP280;49455;52.252;9.124;2023-02-28T05:17:26;101096.53;;;-3.12
49154;BMP280;49455;52.252;9.124;2023-02-28T05:22:26;101090.22;;;-3.00
49154;BMP280;49455;52.252;9.124;2023-02-28T05:27:27;101089.91;;;-3.03
49154;BMP280;49455;52.252;9.124;2023-02-28T05:32:27;101088.97;;;-3.03
49154;BMP280;49455;52.252;9.124;2023-02-28T05:37:28;101104.44;;;-3.09
49154;BMP280;49455;52.252;9.124;2023-02-28T05:42:28;101098.00;;;-3.22
49154;BMP280;49455;52.252;9.124;2023-02-28T05:47:28;101097.59;;;-3.10
49154;BMP280;49455;52.252;9.124;2023-02-28T05:52:29;101104.69;;;-3.23
49154;BMP280;49455;52.252;9.124;2023-02-28T05:57:29;101111.31;;;-3.40
49154;BMP280;49455;52.252;9.124;2023-02-28T06:02:30;101103.06;;;-3.54
49154;BMP280;49455;52.252;9.124;2023-02-28T06:07:30;101109.03;;;-3.45
49154;BMP280;49455;52.252;9.124;2023-02-28T06:12:30;101108.59;;;-3.09
49154;BMP280;49455;52.252;9.124;2023-02-28T06:17:31;101099.69;;;-2.57
49154;BMP280;49455;52.252;9.124;2023-02-28T06:22:31;101099.84;;;-2.39
49154;BMP280;49455;52.252;9.124;2023-02-28T06:27:33;101108.94;;;-2.24
49154;BMP280;49455;52.252;9.124;2023-02-28T06:32:34;101111.47;;;-2.08
49154;BMP280;49455;52.252;9.124;2023-02-28T06:37:34;101109.97;;;-1.97
49154;BMP280;49455;52.252;9.124;2023-02-28T06:42:34;101118.88;;;-1.92
49154;BMP280;49455;52.252;9.124;2023-02-28T06:47:36;101124.88;;;-1.92
49154;BMP280;49455;52.252;9.124;2023-02-28T06:52:37;101127.22;;;-1.85
49154;BMP280;49455;52.252;9.124;2023-02-28T06:57:37;101131.09;;;-1.72
49154;BMP280;49455;52.252;9.124;2023-02-28T07:02:38;101139.72;;;-1.61
49154;BMP280;49455;52.252;9.124;2023-02-28T07:07:39;101143.41;;;-1.50
49154;BMP280;49455;52.252;9.124;2023-02-28T07:12:39;101150.41;;;-1.39
49154;BMP280;49455;52.252;9.124;2023-02-28T07:17:40;101162.03;;;-1.32
49154;BMP280;49455;52.252;9.124;2023-02-28T07:22:40;101160.50;;;-1.22
49154;BMP280;49455;52.252;9.124;2023-02-28T07:27:40;101167.66;;;-1.18
49154;BMP280;49455;52.252;9.124;2023-02-28T07:32:41;101161.75;;;-1.00
49154;BMP280;49455;52.252;9.124;2023-02-28T07:37:42;101163.66;;;-0.90
49154;BMP280;49455;52.252;9.124;2023-02-28T07:42:43;101169.63;;;-0.81
49154;BMP280;49455;52.252;9.124;2023-02-28T07:47:44;101162.69;;;-0.65
49154;BMP280;49455;52.252;9.124;2023-02-28T07:52:44;101156.19;;;-0.53
49154;BMP280;49455;52.252;9.124;2023-02-28T07:57:45;101144.94;;;-0.47
49154;BMP280;49455;52.252;9.124;2023-02-28T08:02:45;101146.19;;;-0.33
49154;BMP280;49455;52.252;9.124;2023-02-28T08:07:46;101143.28;;;-0.46
49154;BMP280;49455;52.252;9.124;2023-02-28T08:12:46;101147.28;;;-0.40
49154;BMP280;49455;52.252;9.124;2023-02-28T08:17:46;101148.72;;;-0.33
49154;BMP280;49455;52.252;9.124;2023-02-28T08:22:47;101155.94;;;-0.20
49154;BMP280;49455;52.252;9.124;2023-02-28T08:27:51;101146.44;;;-0.04
49154;BMP280;49455;52.252;9.124;2023-02-28T08:32:51;101147.66;;;0.09
49154;BMP280;49455;52.252;9.124;2023-02-28T08:37:52;101153.91;;;0.31
49154;BMP280;49455;52.252;9.124;2023-02-28T08:42:52;101149.59;;;0.58
49154;BMP280;49455;52.252;9.124;2023-02-28T08:47:54;101152.22;;;0.68
49154;BMP280;49455;52.252;9.124;2023-02-28T08:52:54;101154.28;;;0.82
49154;BMP280;49455;52.252;9.124;2023-02-28T08:57:55;101154.03;;;0.79
49154;BMP280;49455;52.252;9.124;2023-02-28T09:02:55;101146.75;;;1.11
49154;BMP280;49455;52.252;9.124;2023-02-28T09:07:55;101155.47;;;1.33
49154;BMP280;49455;52.252;9.124;2023-02-28T09:12:56;101153.13;;;1.26
49154;BMP280;49455;52.252;9.124;2023-02-28T09:17:56;101152.13;;;1.34
49154;BMP280;49455;52.252;9.124;2023-02-28T09:22:57;101151.94;;;1.60
49154;BMP280;49455;52.252;9.124;2023-02-28T09:27:57;101153.44;;;2.08
49154;BMP280;49455;52.252;9.124;2023-02-28T09:32:57;101165.16;;;2.15
49154;BMP280;49455;52.252;9.124;2023-02-28T09:37:59;101161.91;;;2.38
49154;BMP280;49455;52.252;9.124;2023-02-28T09:43:00;101166.28;;;2.79
49154;BMP280;49455;52.252;9.124;2023-02-28T09:48:03;101154.44;;;3.01
49154;BMP280;49455;52.252;9.124;2023-02-28T09:53:22;101158.88;;;3.25
49154;BMP280;49455;52.252;9.124;2023-02-28T09:58:52;101167.28;;;3.33
49154;BMP280;49455;52.252;9.124;2023-02-28T10:04:00;101153.16;;;3.38
49154;BMP280;49455;52.252;9.124;2023-02-28T10:09:29;101156.16;;;3.33
49154;BMP280;49455;52.252;9.124;2023-02-28T10:14:33;101155.22;;;3.75
49154;BMP280;49455;52.252;9.124;2023-02-28T10:24:51;101155.16;;;3.85
49154;BMP280;49455;52.252;9.124;2023-02-28T10:29:54;101150.91;;;4.29
49154;BMP280;49455;52.252;9.124;2023-02-28T10:35:17;101153.91;;;4.35
49154;BMP280;49455;52.252;9.124;2023-02-28T10:45:18;101147.31;;;4.27
49154;BMP280;49455;52.252;9.124;2023-02-28T10:50:32;101147.09;;;3.69
49154;BMP280;49455;52.252;9.124;2023-02-28T10:55:34;101150.78;;;3.84
49154;BMP280;49455;52.252;9.124;2023-02-28T11:00:35;101138.09;;;4.18
49154;BMP280;49455;52.252;9.124;2023-02-28T11:05:36;101135.34;;;4.71
49154;BMP280;49455;52.252;9.124;2023-02-28T11:10:36;101156.06;;;3.64
49154;BMP280;49455;52.252;9.124;2023-02-28T11:15:37;101146.31;;;3.70
49154;BMP280;49455;52.252;9.124;2023-02-28T11:20:38;101142.13;;;3.82
49154;BMP280;49455;52.252;9.124;2023-02-28T11:25:39;101129.69;;;3.54
49154;BMP280;49455;52.252;9.124;2023-02-28T11:30:41;101135.06;;;3.68
49154;BMP280;49455;52.252;9.124;2023-02-28T11:35:42;101117.06;;;4.33
49154;BMP280;49455;52.252;9.124;2023-02-28T11:40:52;101118.66;;;4.42
49154;BMP280;49455;52.252;9.124;2023-02-28T11:51:15;101105.13;;;5.25
49154;BMP280;49455;52.252;9.124;2023-02-28T11:56:29;101095.78;;;5.14
49154;BMP280;49455;52.252;9.124;2023-02-28T12:12:48;101091.09;;;5.69
49154;BMP280;49455;52.252;9.124;2023-02-28T12:28:41;101062.31;;;6.61
49154;BMP280;49455;52.252;9.124;2023-02-28T12:33:47;101058.78;;;6.33
49154;BMP280;49455;52.252;9.124;2023-02-28T12:38:48;101065.97;;;6.13
49154;BMP280;49455;52.252;9.124;2023-02-28T12:43:57;101064.81;;;5.71
49154;BMP280;49455;52.252;9.124;2023-02-28T12:49:06;101057.66;;;5.91
49154;BMP280;49455;52.252;9.124;2023-02-28T12:59:49;101046.13;;;5.61
49154;BMP280;49455;52.252;9.124;2023-02-28T13:10:09;101029.44;;;6.17
49154;BMP280;49455;52.252;9.124;2023-02-28T13:15:18;101021.63;;;6.66
49154;BMP280;49455;52.252;9.124;2023-02-28T13:20:21;101022.56;;;6.16
49154;BMP280;49455;52.252;9.124;2023-02-28T13:36:08;101001.16;;;6.55
49154;BMP280;49455;52.252;9.124;2023-02-28T13:41:45;101007.63;;;6.36
49154;BMP280;49455;52.252;9.124;2023-02-28T13:51:51;100994.59;;;6.33
49154;BMP280;49455;52.252;9.124;2023-02-28T13:57:02;100989.50;;;6.20
49154;BMP280;49455;52.252;9.124;2023-02-28T14:07:30;100984.25;;;6.71
49154;BMP280;49455;52.252;9.124;2023-02-28T14:12:57;100983.31;;;6.44
49154;BMP280;49455;52.252;9.124;2023-02-28T14:18:01;100987.94;;;6.62
49154;BMP280;49455;52.252;9.124;2023-02-28T14:28:49;100970.16;;;6.92
49154;BMP280;49455;52.252;9.124;2023-02-28T14:39:20;100964.38;;;6.42
49154;BMP280;49455;52.252;9.124;2023-02-28T14:44:26;100977.72;;;6.36
49154;BMP280;49455;52.252;9.124;2023-02-28T14:49:34;100976.97;;;5.99
49154;BMP280;49455;52.252;9.124;2023-02-28T14:54:36;100983.66;;;5.84
49154;BMP280;49455;52.252;9.124;2023-02-28T14:59:37;100974.72;;;6.43
49154;BMP280;49455;52.252;9.124;2023-02-28T15:04:37;100976.34;;;6.16
49154;BMP280;49455;52.252;9.124;2023-02-28T15:09:38;100971.13;;;5.76
49154;BMP280;49455;52.252;9.124;2023-02-28T15:14:42;100974.66;;;6.16
49154;BMP280;49455;52.252;9.124;2023-02-28T15:19:46;100979.69;;;5.76
49154;BMP280;49455;52.252;9.124;2023-02-28T15:24:51;100968.66;;;5.90
49154;BMP280;49455;52.252;9.124;2023-02-28T15:29:58;100971.53;;;5.58
49154;BMP280;49455;52.252;9.124;2023-02-28T15:35:18;100978.06;;;5.66
49154;BMP280;49455;52.252;9.124;2023-02-28T15:45:39;100978.47;;;5.59
49154;BMP280;49455;52.252;9.124;2023-02-28T15:50:41;100979.94;;;5.18
49154;BMP280;49455;52.252;9.124;2023-02-28T15:55:41;100974.91;;;5.20
49154;BMP280;49455;52.252;9.124;2023-02-28T16:00:43;100972.59;;;5.11
49154;BMP280;49455;52.252;9.124;2023-02-28T16:05:44;100972.19;;;5.06
49154;BMP280;49455;52.252;9.124;2023-02-28T16:10:44;100975.00;;;5.21
49154;BMP280;49455;52.252;9.124;2023-02-28T16:15:44;100981.81;;;4.97
49154;BMP280;49455;52.252;9.124;2023-02-28T16:20:45;100981.63;;;4.58
49154;BMP280;49455;52.252;9.124;2023-02-28T16:25:45;100980.75;;;4.47
49154;BMP280;49455;52.252;9.124;2023-02-28T16:30:46;100986.94;;;4.26
49154;BMP280;49455;52.252;9.124;2023-02-28T16:35:47;100991.41;;;4.17
49154;BMP280;49455;52.252;9.124;2023-02-28T16:40:49;100983.59;;;4.16
49154;BMP280;49455;52.252;9.124;2023-02-28T16:45:55;100991.16;;;4.14
49154;BMP280;49455;52.252;9.124;2023-02-28T16:50:56;100996.28;;;4.03
49154;BMP280;49455;52.252;9.124;2023-02-28T16:55:56;100994.06;;;3.73
49154;BMP280;49455;52.252;9.124;2023-02-28T17:00:56;101008.06;;;3.56
49154;BMP280;49455;52.252;9.124;2023-02-28T17:05:57;101006.72;;;3.17
49154;BMP280;49455;52.252;9.124;2023-02-28T17:11:00;101012.94;;;3.09
49154;BMP280;49455;52.252;9.124;2023-02-28T17:16:02;101012.75;;;2.75
49154;BMP280;49455;52.252;9.124;2023-02-28T17:21:02;101017.44;;;2.59
49154;BMP280;49455;52.252;9.124;2023-02-28T17:26:03;101015.13;;;2.41
49154;BMP280;49455;52.252;9.124;2023-02-28T17:31:03;101020.91;;;2.29
49154;BMP280;49455;52.252;9.124;2023-02-28T17:36:04;101032.47;;;2.14
49154;BMP280;49455;52.252;9.124;2023-02-28T17:41:04;101044.19;;;2.12
49154;BMP280;49455;52.252;9.124;2023-02-28T17:46:06;101034.66;;;2.00
49154;BMP280;49455;52.252;9.124;2023-02-28T17:51:12;101040.28;;;1.96
49154;BMP280;49455;52.252;9.124;2023-02-28T17:56:16;101049.34;;;1.92
49154;BMP280;49455;52.252;9.124;2023-02-28T18:01:18;101046.28;;;1.86
49154;BMP280;49455;52.252;9.124;2023-02-28T18:06:27;101045.13;;;1.83
49154;BMP280;49455;52.252;9.124;2023-02-28T18:11:28;101052.78;;;1.83
49154;BMP280;49455;52.252;9.124;2023-02-28T18:16:29;101060.72;;;1.76
49154;BMP280;49455;52.252;9.124;2023-02-28T18:21:29;101056.91;;;1.71
49154;BMP280;49455;52.252;9.124;2023-02-28T18:26:30;101048.88;;;1.67
49154;BMP280;49455;52.252;9.124;2023-02-28T18:31:31;101048.38;;;1.61
49154;BMP280;49455;52.252;9.124;2023-02-28T18:36:31;101048.00;;;1.47
49154;BMP280;49455;52.252;9.124;2023-02-28T18:41:31;101048.53;;;1.33
49154;BMP280;49455;52.252;9.124;2023-02-28T18:46:32;101051.28;;;1.16
49154;BMP280;49455;52.252;9.124;2023-02-28T18:51:32;101046.47;;;1.09
49154;BMP280;49455;52.252;9.124;2023-02-28T18:56:32;101049.38;;;1.04
49154;BMP280;49455;52.252;9.124;2023-02-28T19:01:33;101042.38;;;1.01
49154;BMP280;49455;52.252;9.124;2023-02-28T19:06:34;101050.25;;;0.94
49154;BMP280;49455;52.252;9.124;2023-02-28T19:11:34;101044.63;;;0.89
49154;BMP280;49455;52.252;9.124;2023-02-28T19:16:35;101040.06;;;0.85
49154;BMP280;49455;52.252;9.124;2023-02-28T19:21:35;101039.16;;;0.74
49154;BMP280;49455;52.252;9.124;2023-02-28T19:26:35;101047.63;;;0.65
49154;BMP280;49455;52.252;9.124;2023-02-28T19:31:36;101043.09;;;0.43
49154;BMP280;49455;52.252;9.124;2023-02-28T19:36:36;101051.59;;;0.33
49154;BMP280;49455;52.252;9.124;2023-02-28T19:41:37;101047.63;;;0.27
49154;BMP280;49455;52.252;9.124;2023-02-28T19:46:37;101042.94;;;0.31
49154;BMP280;49455;52.252;9.124;2023-02-28T19:51:37;101049.00;;;0.24
49154;BMP280;49455;52.252;9.124;2023-02-28T19:56:38;101050.34;;;0.10
49154;BMP280;49455;52.252;9.124;2023-02-28T20:01:38;101053.22;;;0.05
49154;BMP280;49455;52.252;9.124;2023-02-28T20:06:38;101057.25;;;-0.07
49154;BMP280;49455;52.252;9.124;2023-02-28T20:11:39;101058.13;;;-0.06
49154;BMP280;49455;52.252;9.124;2023-02-28T20:16:40;101064.34;;;-0.03
49154;BMP280;49455;52.252;9.124;2023-02-28T20:21:40;101070.22;;;-0.04
49154;BMP280;49455;52.252;9.124;2023-02-28T20:26:40;101066.00;;;-0.03
49154;BMP280;49455;52.252;9.124;2023-02-28T20:31:41;101078.34;;;-0.08
49154;BMP280;49455;52.252;9.124;2023-02-28T20:36:41;101079.56;;;-0.13
49154;BMP280;49455;52.252;9.124;2023-02-28T20:41:42;101082.28;;;-0.20
49154;BMP280;49455;52.252;9.124;2023-02-28T20:46:42;101091.16;;;-0.25
49154;BMP280;49455;52.252;9.124;2023-02-28T20:51:42;101084.78;;;-0.30
49154;BMP280;49455;52.252;9.124;2023-02-28T20:56:43;101087.31;;;-0.30
49154;BMP280;49455;52.252;9.124;2023-02-28T21:01:43;101082.72;;;-0.33
49154;BMP280;49455;52.252;9.124;2023-02-28T21:06:44;101082.19;;;-0.21
49154;BMP280;49455;52.252;9.124;2023-02-28T21:11:44;101074.31;;;0.04
49154;BMP280;49455;52.252;9.124;2023-02-28T21:16:45;101067.03;;;0.17
49154;BMP280;49455;52.252;9.124;2023-02-28T21:21:45;101074.22;;;0.30
49154;BMP280;49455;52.252;9.124;2023-02-28T21:26:46;101066.84;;;0.33
49154;BMP280;49455;52.252;9.124;2023-02-28T21:31:49;101071.41;;;0.28
49154;BMP280;49455;52.252;9.124;2023-02-28T21:36:50;101077.38;;;0.28
49154;BMP280;49455;52.252;9.124;2023-02-28T21:41:51;101081.78;;;0.21
49154;BMP280;49455;52.252;9.124;2023-02-28T21:46:52;101085.75;;;0.27
49154;BMP280;49455;52.252;9.124;2023-02-28T21:51:52;101084.22;;;0.29
49154;BMP280;49455;52.252;9.124;2023-02-28T21:56:55;101091.75;;;0.28
49154;BMP280;49455;52.252;9.124;2023-02-28T22:01:55;101077.75;;;0.32
49154;BMP280;49455;52.252;9.124;2023-02-28T22:06:56;101079.78;;;0.27
49154;BMP280;49455;52.252;9.124;2023-02-28T22:11:57;101073.53;;;0.23
49154;BMP280;49455;52.252;9.124;2023-02-28T22:16:57;101078.16;;;0.09
49154;BMP280;49455;52.252;9.124;2023-02-28T22:21:57;101079.41;;;0.04
49154;BMP280;49455;52.252;9.124;2023-02-28T22:26:58;101070.09;;;-0.05
49154;BMP280;49455;52.252;9.124;2023-02-28T22:31:58;101087.91;;;-0.14
49154;BMP280;49455;52.252;9.124;2023-02-28T22:36:58;101085.78;;;-0.28
49154;BMP280;49455;52.252;9.124;2023-02-28T22:41:59;101076.91;;;-0.32
49154;BMP280;49455;52.252;9.124;2023-02-28T22:46:59;101070.63;;;-0.54
49154;BMP280;49455;52.252;9.124;2023-02-28T22:52:00;101076.09;;;-0.50
49154;BMP280;49455;52.252;9.124;2023-02-28T22:57:00;101076.44;;;-0.55
49154;BMP280;49455;52.252;9.124;2023-02-28T23:02:00;101067.94;;;-0.56
49154;BMP280;49455;52.252;9.124;2023-02-28T23:07:01;101068.47;;;-0.68
49154;BMP280;49455;52.252;9.124;2023-02-28T23:12:01;101062.00;;;-0.83
49154;BMP280;49455;52.252;9.124;2023-02-28T23:17:02;101061.91;;;-0.92
49154;BMP280;49455;52.252;9.124;2023-02-28T23:22:03;101074.78;;;-0.99
49154;BMP280;49455;52.252;9.124;2023-02-28T23:27:04;101068.78;;;-0.91
49154;BMP280;49455;52.252;9.124;2023-02-28T23:32:05;101073.38;;;-0.88
49154;BMP280;49455;52.252;9.124;2023-02-28T23:37:08;101062.56;;;-0.77
49154;BMP280;49455;52.252;9.124;2023-02-28T23:42:08;101065.31;;;-0.84
49154;BMP280;49455;52.252;9.124;2023-02-28T23:47:08;101065.38;;;-0.74
49154;BMP280;49455;52.252;9.124;2023-02-28T23:52:09;101067.91;;;-0.92
49154;BMP280;49455;52.252;9.124;2023-02-28T23:57:09;101066.25;;;-0.91
